Time;durP1;ratioP1;P1;durP2;ratioP2;P2;SDS_P1;SDS_P2;PMS_P1;PMS_P2;Temp;Humidity;BMP_temperature;BMP_pressure;BME280_temperature;BME280_humidity;BME280_pressure;Samples;Min_cycle;Max_cycle;Signal;HPM_P1;HPM_P2
2022/01/10 00:00:54;;;;;;;9.93;4.50;;;;;;;26.07;31.49;95873.09;5013535;28;20048;-30
2022/01/10 00:03:21;;;;;;;11.40;4.60;;;;;;;26.06;31.40;95877.53;4997804;28;20914;-29
2022/01/10 00:05:47;;;;;;;12.55;4.32;;;;;;;26.07;31.58;95880.97;5000100;28;20048;-34
2022/01/10 00:08:14;;;;;;;10.50;4.57;;;;;;;26.06;31.61;95885.41;5000512;28;20304;-34
2022/01/10 00:10:40;;;;;;;9.15;4.30;;;;;;;26.06;31.42;95890.66;5004141;28;20676;-33
2022/01/10 00:13:05;;;;;;;9.57;3.92;;;;;;;26.05;31.62;95894.19;4998703;28;20033;-30
2022/01/10 00:15:30;;;;;;;8.93;3.75;;;;;;;26.06;31.47;95895.06;5000532;28;20033;-32
2022/01/10 00:17:56;;;;;;;11.07;4.18;;;;;;;26.06;31.45;95895.06;4998714;28;20076;-35
2022/01/10 00:20:21;;;;;;;10.93;4.25;;;;;;;26.06;31.51;95901.16;5000226;28;20486;-32
2022/01/10 00:22:49;;;;;;;10.90;4.30;;;;;;;26.05;31.51;95904.72;5001945;28;20043;-33
2022/01/10 00:25:15;;;;;;;9.80;4.30;;;;;;;26.05;31.56;95907.34;5005339;28;20515;-31
2022/01/10 00:27:41;;;;;;;8.50;3.80;;;;;;;26.05;31.41;95907.34;5006265;28;20033;-34
2022/01/10 00:30:07;;;;;;;8.18;3.83;;;;;;;26.05;31.52;95907.34;5005705;28;20034;-30
2022/01/10 00:32:33;;;;;;;7.88;4.05;;;;;;;26.04;31.46;95903.03;5001761;28;20033;-33
2022/01/10 00:34:58;;;;;;;9.23;3.78;;;;;;;26.04;31.52;95908.28;4999251;28;20032;-33
2022/01/10 00:37:23;;;;;;;9.68;3.95;;;;;;;26.05;31.40;95909.13;5000363;28;20524;-33
2022/01/10 00:39:49;;;;;;;9.25;3.83;;;;;;;26.05;31.39;95915.22;5001031;28;20041;-32
2022/01/10 00:42:15;;;;;;;9.57;3.83;;;;;;;26.04;31.46;95916.16;5008748;28;20033;-30
2022/01/10 00:44:50;;;;;;;9.98;4.03;;;;;;;26.04;31.39;95918.78;4998640;28;20041;-34
2022/01/10 00:47:16;;;;;;;8.05;3.60;;;;;;;26.04;31.48;95921.41;4998123;28;20033;-29
2022/01/10 00:49:41;;;;;;;7.97;3.40;;;;;;;26.04;31.42;95923.19;5001226;28;20118;-35
2022/01/10 00:52:06;;;;;;;6.70;3.47;;;;;;;26.03;31.54;95925.00;4999571;28;20509;-35
2022/01/10 00:54:32;;;;;;;7.20;3.63;;;;;;;26.03;31.47;95919.72;5000921;28;20040;-32
2022/01/10 00:56:57;;;;;;;7.45;3.40;;;;;;;26.03;31.47;95927.63;4998539;28;20025;-32
2022/01/10 00:59:23;;;;;;;9.02;3.25;;;;;;;26.02;31.41;95931.19;4999391;28;20033;-31
2022/01/10 01:01:48;;;;;;;7.20;3.33;;;;;;;26.03;31.40;95937.25;5000422;28;20043;-37
2022/01/10 01:04:14;;;;;;;7.38;3.28;;;;;;;26.03;31.52;95943.38;4999231;28;20512;-35
2022/01/10 01:06:40;;;;;;;6.00;3.08;;;;;;;26.03;31.31;95942.50;5004156;28;20271;-29
2022/01/10 01:09:09;;;;;;;8.52;3.70;;;;;;;26.02;31.41;95946.94;5010703;28;20519;-34
2022/01/10 01:14:11;;;;;;;7.53;3.40;;;;;;;26.03;31.41;95953.00;5000182;28;20024;-35
2022/01/10 01:24:28;;;;;;;7.70;3.03;;;;;;;26.01;31.39;95966.25;4999507;28;21131;-33
2022/01/10 01:26:54;;;;;;;6.70;3.03;;;;;;;26.00;31.44;95969.81;4999763;28;20041;-29
2022/01/10 01:29:24;;;;;;;5.45;2.90;;;;;;;25.98;31.31;95976.97;5000279;28;20116;-28
2022/01/10 01:31:50;;;;;;;5.88;2.90;;;;;;;25.99;31.41;95978.66;5004869;28;20065;-28
2022/01/10 01:34:16;;;;;;;5.25;2.63;;;;;;;25.98;31.32;95990.09;5003088;28;20116;-29
2022/01/10 01:36:45;;;;;;;5.22;2.67;;;;;;;25.98;31.26;95992.72;5003299;28;20034;-30
2022/01/10 01:39:21;;;;;;;6.72;3.10;;;;;;;25.98;31.41;95991.88;5002814;28;20161;-31
2022/01/10 01:41:49;;;;;;;7.18;3.20;;;;;;;25.97;31.27;95996.25;5003953;28;20030;-29
2022/01/10 01:44:14;;;;;;;6.30;3.05;;;;;;;25.97;31.28;95991.00;4984164;28;20584;-31
2022/01/10 01:46:41;;;;;;;8.23;2.60;;;;;;;25.96;31.14;96000.69;5001736;28;20088;-30
2022/01/10 01:49:07;;;;;;;6.60;2.83;;;;;;;25.96;31.30;96005.09;5004805;28;20593;-31
2022/01/10 01:51:32;;;;;;;6.13;3.03;;;;;;;25.96;31.21;95991.97;5001629;28;20041;-31
2022/01/10 01:53:58;;;;;;;6.43;2.58;;;;;;;25.95;31.22;96003.41;5002221;28;20188;-29
2022/01/10 01:56:23;;;;;;;5.45;2.83;;;;;;;25.96;31.29;96005.09;5009990;28;20056;-36
2022/01/10 01:58:52;;;;;;;6.13;2.70;;;;;;;25.95;31.36;96000.78;5001578;28;20079;-35
2022/01/10 02:01:18;;;;;;;6.03;2.65;;;;;;;25.96;31.21;96010.34;5003916;28;20033;-29
2022/01/10 02:03:44;;;;;;;4.95;2.35;;;;;;;25.94;31.26;96004.38;5003483;28;20018;-28
2022/01/10 02:06:09;;;;;;;6.15;2.58;;;;;;;25.95;31.36;96013.91;5002630;28;20033;-29
2022/01/10 02:08:35;;;;;;;5.85;2.70;;;;;;;25.94;31.30;96012.25;5004084;28;20037;-29
2022/01/10 02:11:02;;;;;;;6.28;2.72;;;;;;;25.94;31.25;96017.50;5003901;28;20112;-34
2022/01/10 02:13:27;;;;;;;5.97;2.75;;;;;;;25.93;31.33;96016.63;5000216;28;20056;-29
2022/01/10 02:16:01;;;;;;;4.40;2.33;;;;;;;25.92;31.32;96025.47;5002092;28;20026;-30
2022/01/10 02:18:27;;;;;;;5.70;2.42;;;;;;;25.93;31.21;96024.50;5001381;28;20095;-35
2022/01/10 02:20:52;;;;;;;5.10;2.28;;;;;;;25.92;31.18;96029.84;5002745;28;20171;-32
2022/01/10 02:23:18;;;;;;;4.40;2.50;;;;;;;25.92;31.25;96035.97;5001442;28;20036;-31
2022/01/10 02:25:43;;;;;;;6.30;2.50;;;;;;;25.91;31.33;96036.91;5003111;28;20034;-29
2022/01/10 02:28:09;;;;;;;5.43;2.30;;;;;;;25.92;31.27;96040.34;5010816;28;20044;-30
2022/01/10 02:30:34;;;;;;;3.78;2.25;;;;;;;25.91;31.18;96041.31;5009347;28;20079;-32
2022/01/10 02:33:01;;;;;;;3.50;1.95;;;;;;;25.91;31.43;96044.78;5010093;28;20257;-30
2022/01/10 02:35:51;;;;;;;2.83;1.88;;;;;;;25.91;31.21;96049.19;5002928;28;20363;-29
2022/01/10 02:38:17;;;;;;;4.57;2.00;;;;;;;25.90;31.18;96050.13;5001900;28;20142;-30
2022/01/10 02:40:44;;;;;;;4.63;2.38;;;;;;;25.91;31.32;96057.06;5003947;28;20563;-33
2022/01/10 02:43:10;;;;;;;4.97;2.20;;;;;;;25.88;31.38;96055.47;5006478;28;20679;-29
2022/01/10 02:45:35;;;;;;;3.47;2.10;;;;;;;25.89;31.24;96053.69;5000806;28;20073;-28
2022/01/10 02:48:00;;;;;;;3.97;1.92;;;;;;;25.90;31.34;96063.25;5000589;28;20029;-29
2022/01/10 02:50:26;;;;;;;3.95;1.67;;;;;;;25.89;31.17;96072.06;5002380;28;20317;-30
2022/01/10 02:52:51;;;;;;;3.45;1.98;;;;;;;25.89;31.18;96069.44;5000338;28;21648;-36
2022/01/10 02:55:17;;;;;;;4.70;2.20;;;;;;;25.89;31.17;96072.91;5001644;28;20524;-29
2022/01/10 02:57:43;;;;;;;3.80;2.00;;;;;;;25.89;31.17;96078.16;5000665;28;20120;-31
2022/01/10 03:00:14;;;;;;;3.38;2.10;;;;;;;25.88;31.30;96081.72;5003160;28;20034;-34
2022/01/10 03:02:41;;;;;;;3.03;1.90;;;;;;;25.88;31.33;96084.34;5003385;28;20041;-29
2022/01/10 03:05:07;;;;;;;3.65;2.20;;;;;;;25.88;31.33;96091.38;4998293;28;21176;-31
2022/01/10 03:07:32;;;;;;;4.38;2.25;;;;;;;25.87;31.26;96090.53;5002026;28;20112;-30
2022/01/10 03:09:58;;;;;;;3.70;1.90;;;;;;;25.87;31.47;96097.56;5001139;28;20041;-33
2022/01/10 03:12:23;;;;;;;3.50;1.88;;;;;;;25.88;31.35;96096.63;5000744;28;20037;-31
2022/01/10 03:14:49;;;;;;;3.60;1.83;;;;;;;25.88;31.19;96101.88;5001785;28;20483;-31
2022/01/10 03:17:14;;;;;;;3.67;1.80;;;;;;;25.87;31.22;96108.06;5016201;28;20029;-38
2022/01/10 03:19:40;;;;;;;3.30;1.83;;;;;;;25.86;31.36;96109.88;5001058;28;20628;-31
2022/01/10 03:22:06;;;;;;;3.25;1.90;;;;;;;25.88;31.25;96122.88;4998519;28;20033;-31
2022/01/10 03:24:31;;;;;;;3.70;1.88;;;;;;;25.86;31.33;96119.50;5003230;28;20038;-35
2022/01/10 03:26:57;;;;;;;3.47;1.80;;;;;;;25.87;31.37;96127.28;5001535;28;20140;-30
2022/01/10 03:29:22;;;;;;;3.53;1.60;;;;;;;25.86;31.18;96135.25;5000785;28;20064;-33
2022/01/10 03:31:48;;;;;;;4.07;1.73;;;;;;;25.85;31.34;96137.03;5003942;28;20034;-34
2022/01/10 03:34:13;;;;;;;3.95;1.80;;;;;;;25.85;31.26;96136.22;5000143;28;20026;-34
2022/01/10 03:36:39;;;;;;;3.38;1.73;;;;;;;25.85;31.31;96138.84;5000724;28;20028;-30
2022/01/10 03:39:05;;;;;;;3.58;1.75;;;;;;;25.85;31.26;96146.72;5002869;28;20036;-30
2022/01/10 03:41:30;;;;;;;3.00;1.83;;;;;;;25.84;31.40;96143.22;5001522;28;20029;-32
2022/01/10 03:43:56;;;;;;;2.40;1.40;;;;;;;25.85;31.34;96144.09;4998239;28;20567;-30
2022/01/10 03:46:21;;;;;;;2.35;1.42;;;;;;;25.83;31.29;96150.25;5000547;28;20040;-32
2022/01/10 03:48:46;;;;;;;2.85;1.65;;;;;;;25.83;31.16;96150.25;5001917;28;20049;-30
2022/01/10 03:51:12;;;;;;;3.20;1.65;;;;;;;25.84;31.29;96156.34;5001061;28;20029;-30
2022/01/10 03:53:37;;;;;;;2.30;1.52;;;;;;;25.83;31.28;96166.00;5000065;28;20643;-32
2022/01/10 03:56:03;;;;;;;2.65;1.38;;;;;;;25.83;31.21;96162.53;5000521;28;20064;-33
2022/01/10 03:58:29;;;;;;;2.75;1.70;;;;;;;25.83;31.19;96157.28;5001837;28;20029;-29
2022/01/10 04:00:54;;;;;;;2.47;1.40;;;;;;;25.82;31.18;96166.94;5000240;28;20029;-34
2022/01/10 04:03:20;;;;;;;2.85;1.60;;;;;;;25.82;31.18;96172.19;4998970;28;20159;-30
2022/01/10 04:05:45;;;;;;;2.50;1.60;;;;;;;25.82;31.35;96169.56;5001027;28;20026;-29
2022/01/10 04:08:12;;;;;;;2.85;1.77;;;;;;;25.81;31.21;96165.25;4999747;28;20025;-36
2022/01/10 04:10:38;;;;;;;2.08;1.42;;;;;;;25.81;31.34;96170.50;5003970;28;20053;-34
2022/01/10 04:13:03;;;;;;;1.95;1.23;;;;;;;25.81;31.29;96181.00;5000671;28;20702;-35
2022/01/10 04:15:28;;;;;;;2.45;1.50;;;;;;;25.81;31.28;96174.91;5001000;28;20558;-30
2022/01/10 04:17:56;;;;;;;2.72;1.52;;;;;;;25.81;31.24;96181.00;5000745;28;20527;-31
2022/01/10 04:20:23;;;;;;;3.42;1.48;;;;;;;25.80;31.20;96187.22;5000921;28;20036;-30
2022/01/10 04:22:48;;;;;;;2.67;1.50;;;;;;;25.80;31.31;96189.84;5017009;28;20684;-29
2022/01/10 04:25:14;;;;;;;2.67;1.45;;;;;;;25.80;31.17;96189.84;5004315;28;20211;-34
2022/01/10 04:27:39;;;;;;;2.38;1.48;;;;;;;25.80;31.29;96192.47;5005149;28;20515;-29
2022/01/10 04:30:05;;;;;;;3.60;1.40;;;;;;;25.79;31.19;96198.66;5005197;28;20037;-29
2022/01/10 04:32:32;;;;;;;4.22;1.33;;;;;;;25.79;31.20;96198.66;4999464;28;20073;-32
2022/01/10 04:34:58;;;;;;;2.95;1.58;;;;;;;25.80;31.30;96202.09;5000484;28;20021;-31
2022/01/10 04:37:23;;;;;;;2.58;1.58;;;;;;;25.78;31.20;96204.81;5001661;28;20038;-31
2022/01/10 04:39:48;;;;;;;2.88;1.33;;;;;;;25.78;31.27;96202.19;5001964;28;20033;-33
2022/01/10 04:42:14;;;;;;;2.35;1.33;;;;;;;25.74;31.26;96199.88;5007562;28;21683;-34
2022/01/10 04:44:41;;;;;;;3.10;1.48;;;;;;;25.78;31.32;96211.88;4999699;28;20021;-33
2022/01/10 04:47:06;;;;;;;2.03;1.30;;;;;;;25.78;31.17;96222.38;5001330;28;20083;-34
2022/01/10 04:49:44;;;;;;;3.40;1.15;;;;;;;25.77;31.12;96216.25;5002388;28;20029;-33
2022/01/10 04:52:10;;;;;;;2.53;1.52;;;;;;;25.78;31.26;96222.38;5000291;28;20057;-33
2022/01/10 04:54:35;;;;;;;1.90;1.23;;;;;;;25.77;31.26;96229.38;5000694;28;20697;-30
2022/01/10 04:57:01;;;;;;;2.25;1.40;;;;;;;25.77;31.19;96234.63;5001049;28;20506;-34
2022/01/10 04:59:26;;;;;;;2.72;1.13;;;;;;;25.78;31.17;96243.34;5001861;28;20046;-29
2022/01/10 05:01:51;;;;;;;2.28;1.45;;;;;;;25.76;31.27;96242.59;4998343;28;20441;-30
2022/01/10 05:04:17;;;;;;;1.10;1.00;;;;;;;25.77;31.27;96241.66;4998915;28;20029;-34
2022/01/10 05:06:42;;;;;;;4.43;1.33;;;;;;;25.76;31.21;96246.06;5016256;28;20029;-30
2022/01/10 05:09:08;;;;;;;2.67;1.27;;;;;;;25.76;31.27;96248.69;5012138;28;20650;-30
2022/01/10 05:11:36;;;;;;;1.35;0.98;;;;;;;25.76;31.25;96251.31;5001295;28;20487;-30
2022/01/10 05:14:01;;;;;;;2.55;1.17;;;;;;;25.75;31.25;96244.41;5002757;28;20546;-38
2022/01/10 05:16:26;;;;;;;2.35;1.15;;;;;;;25.75;31.29;96260.13;5004609;28;20038;-29
2022/01/10 05:18:52;;;;;;;2.08;1.25;;;;;;;25.75;31.33;96268.00;5003981;28;20076;-31
2022/01/10 05:21:17;;;;;;;1.88;1.17;;;;;;;25.74;31.24;96268.09;5002445;28;20187;-33
2022/01/10 05:23:43;;;;;;;2.42;1.17;;;;;;;25.74;31.07;96274.19;5003305;28;20034;-29
2022/01/10 05:26:08;;;;;;;2.05;1.10;;;;;;;25.74;31.22;96276.81;5003581;28;20030;-31
2022/01/10 05:28:34;;;;;;;1.85;1.15;;;;;;;25.75;31.15;96277.66;5004863;28;20637;-29
2022/01/10 05:31:01;;;;;;;1.17;0.98;;;;;;;25.74;31.26;96284.69;5005034;28;20373;-35
2022/01/10 05:33:27;;;;;;;1.10;1.00;;;;;;;25.74;31.25;96294.34;5002918;28;20156;-29
2022/01/10 05:35:52;;;;;;;1.98;1.00;;;;;;;25.74;31.04;96294.34;5003593;28;20029;-33
2022/01/10 05:38:18;;;;;;;1.85;1.10;;;;;;;25.74;31.16;96304.84;5002970;28;20025;-30
2022/01/10 05:40:43;;;;;;;1.15;1.00;;;;;;;25.73;31.28;96304.00;5002551;28;20565;-34
2022/01/10 05:43:09;;;;;;;1.73;1.00;;;;;;;25.73;31.26;96308.41;5002370;28;20091;-33
2022/01/10 05:45:34;;;;;;;1.88;1.00;;;;;;;25.73;31.29;96306.63;5001973;28;20029;-35
2022/01/10 05:48:07;;;;;;;1.52;1.00;;;;;;;25.72;31.09;96307.56;5001541;28;20037;-31
2022/01/10 05:50:34;;;;;;;1.73;1.08;;;;;;;25.72;31.20;96323.31;5001587;28;20060;-28
2022/01/10 05:53:00;;;;;;;2.47;1.20;;;;;;;25.72;31.30;96314.56;5003614;28;22411;-28
2022/01/10 05:55:26;;;;;;;1.65;1.05;;;;;;;25.71;31.19;96326.88;5002019;28;20116;-35
2022/01/10 05:57:51;;;;;;;1.73;0.90;;;;;;;25.71;31.29;96326.88;5004839;28;20537;-30
2022/01/10 06:00:17;;;;;;;1.90;1.30;;;;;;;25.71;31.13;96332.13;5015210;28;20527;-31
2022/01/10 06:02:42;;;;;;;2.80;1.00;;;;;;;25.71;31.18;96332.13;5003610;28;20036;-31
2022/01/10 06:05:09;;;;;;;1.80;1.25;;;;;;;25.70;31.12;96341.75;5003799;28;20037;-31
2022/01/10 06:07:36;;;;;;;1.85;1.15;;;;;;;25.70;31.26;96346.16;5002381;28;20397;-34
2022/01/10 06:10:02;;;;;;;1.63;1.08;;;;;;;25.70;31.21;96349.63;5003855;28;20037;-32
2022/01/10 06:12:27;;;;;;;1.70;1.17;;;;;;;25.71;31.28;96353.13;5003285;28;20567;-31
2022/01/10 06:14:52;;;;;;;2.15;1.10;;;;;;;25.70;31.27;96367.16;5004291;28;20491;-34
2022/01/10 06:17:18;;;;;;;1.00;0.90;;;;;;;25.69;31.18;96357.59;5003866;28;20029;-29
2022/01/10 06:19:43;;;;;;;1.83;1.00;;;;;;;25.70;31.12;96370.63;5003464;28;20203;-29
2022/01/10 06:22:08;;;;;;;1.42;1.00;;;;;;;25.69;31.34;96373.34;5002998;28;20036;-29
2022/01/10 06:24:34;;;;;;;0.90;0.85;;;;;;;25.69;31.28;96387.31;5002664;28;20132;-29
2022/01/10 06:26:59;;;;;;;0.88;0.63;;;;;;;25.69;31.16;96386.47;5003036;28;20044;-34
2022/01/10 06:29:25;;;;;;;1.27;0.63;;;;;;;25.69;31.27;96402.22;5002294;28;20025;-30
2022/01/10 06:31:50;;;;;;;1.27;0.95;;;;;;;25.70;31.12;96409.13;5002312;28;21008;-31
2022/01/10 06:34:18;;;;;;;1.92;1.10;;;;;;;25.69;31.27;96408.31;5003467;28;20091;-33
2022/01/10 06:36:43;;;;;;;1.77;0.90;;;;;;;25.69;31.15;96412.69;5004763;28;20136;-35
2022/01/10 06:39:08;;;;;;;1.42;1.00;;;;;;;25.70;31.27;96419.63;5009140;28;20040;-32
2022/01/10 06:41:34;;;;;;;4.65;1.23;;;;;;;25.69;31.22;96423.19;5007708;28;20315;-32
2022/01/10 06:43:59;;;;;;;2.28;0.95;;;;;;;25.70;31.29;96432.75;5017904;28;20022;-31
2022/01/10 06:46:25;;;;;;;1.55;0.85;;;;;;;25.69;31.32;96431.06;5002338;28;20119;-31
2022/01/10 06:48:50;;;;;;;0.95;0.77;;;;;;;25.70;31.18;96432.75;5003628;28;20044;-31
2022/01/10 06:51:15;;;;;;;1.73;0.80;;;;;;;25.69;31.24;96439.81;5000985;28;20613;-35
2022/01/10 06:53:41;;;;;;;1.33;0.90;;;;;;;25.69;31.36;96450.31;5003368;28;20046;-32
2022/01/10 06:56:06;;;;;;;1.17;0.93;;;;;;;25.70;31.21;96445.88;5001154;28;20022;-30
2022/01/10 06:58:31;;;;;;;0.95;0.75;;;;;;;25.71;31.06;96447.59;5003242;28;20702;-35
2022/01/10 07:00:57;;;;;;;1.10;0.70;;;;;;;25.72;31.21;96453.66;5002791;28;20033;-32
2022/01/10 07:03:22;;;;;;;4.10;0.70;;;;;;;25.73;31.14;96455.38;5002266;28;20029;-31
2022/01/10 07:05:48;;;;;;;1.17;0.82;;;;;;;25.71;31.12;96463.34;5003123;28;20033;-32
2022/01/10 07:08:13;;;;;;;1.42;0.98;;;;;;;25.72;31.12;96474.66;5005172;28;20033;-36
2022/01/10 07:10:38;;;;;;;1.77;1.08;;;;;;;25.72;31.14;96479.91;5001246;28;20625;-31
2022/01/10 07:13:04;;;;;;;2.15;0.90;;;;;;;25.73;31.12;96492.13;4998061;28;20056;-34
2022/01/10 07:15:30;;;;;;;1.45;0.80;;;;;;;25.72;31.15;96491.25;5004108;28;20535;-30
2022/01/10 07:17:55;;;;;;;0.95;0.77;;;;;;;25.73;31.01;96492.94;5000644;28;20026;-31
2022/01/10 07:20:21;;;;;;;1.00;0.63;;;;;;;25.72;31.09;96496.50;4998670;28;20036;-30
2022/01/10 07:22:46;;;;;;;1.85;1.40;;;;;;;25.74;31.07;96506.94;5002295;28;20770;-35
2022/01/10 07:25:12;;;;;;;1.25;1.10;;;;;;;25.73;30.97;96515.75;4999983;28;20025;-34
2022/01/10 07:27:37;;;;;;;1.38;1.10;;;;;;;25.74;31.10;96520.06;5000359;28;20488;-36
2022/01/10 07:30:04;;;;;;;2.08;1.10;;;;;;;25.72;30.95;96525.38;4997949;28;20033;-35
2022/01/10 07:32:30;;;;;;;1.45;0.80;;;;;;;25.71;31.03;96521.06;5003613;28;20029;-29
2022/01/10 07:34:58;;;;;;;2.75;1.25;;;;;;;25.72;31.04;96528.00;5001598;28;20578;-30
2022/01/10 07:37:24;;;;;;;3.80;1.85;;;;;;;25.72;30.98;96532.41;5002272;28;20579;-31
2022/01/10 07:39:49;;;;;;;3.97;1.73;;;;;;;25.71;30.98;96542.06;4999075;28;20041;-29
2022/01/10 07:42:15;;;;;;;3.35;1.52;;;;;;;25.70;30.99;96542.97;5000677;28;20025;-35
2022/01/10 07:44:40;;;;;;;5.93;2.15;;;;;;;25.69;30.84;96543.91;5000054;28;20029;-30
2022/01/10 07:47:07;;;;;;;6.05;2.05;;;;;;;25.70;30.95;96545.59;5001932;28;20021;-28
2022/01/10 07:49:40;;;;;;;7.57;2.65;;;;;;;25.69;30.96;96555.28;5014183;28;20420;-30
2022/01/10 07:52:05;;;;;;;9.38;2.90;;;;;;;25.69;30.95;96559.66;4994297;28;20034;-31
2022/01/10 07:54:31;;;;;;;10.98;2.70;;;;;;;25.69;31.05;96564.91;4989760;28;20037;-33
2022/01/10 07:56:56;;;;;;;7.68;2.45;;;;;;;25.70;30.90;96580.56;4976963;28;20025;-31
2022/01/10 07:59:22;;;;;;;6.85;2.88;;;;;;;25.72;30.98;96577.00;4978393;28;20409;-33
2022/01/10 08:01:48;;;;;;;7.80;2.75;;;;;;;25.72;30.90;96585.75;4977262;28;20702;-30
2022/01/10 08:04:14;;;;;;;10.90;2.97;;;;;;;25.72;30.91;96583.13;4978974;28;20474;-32
2022/01/10 08:06:39;;;;;;;7.10;3.08;;;;;;;25.73;30.91;96597.09;4976522;28;20038;-32
2022/01/10 08:09:06;;;;;;;7.93;3.13;;;;;;;25.74;31.03;96604.03;4982449;28;20038;-34
2022/01/10 08:11:31;;;;;;;11.90;3.25;;;;;;;25.74;30.81;96610.13;4981208;28;21557;-30
2022/01/10 08:13:57;;;;;;;8.30;3.03;;;;;;;25.73;30.94;96605.81;4977098;28;20030;-30
2022/01/10 08:16:22;;;;;;;7.70;3.20;;;;;;;25.74;30.96;96612.72;4977264;28;20034;-33
2022/01/10 08:18:48;;;;;;;9.60;3.28;;;;;;;25.74;30.71;96610.13;4975904;28;20026;-31
2022/01/10 08:21:13;;;;;;;7.10;2.78;;;;;;;25.74;30.88;96615.34;4977930;28;20405;-36
2022/01/10 08:23:39;;;;;;;6.13;3.10;;;;;;;25.75;30.84;96613.59;4976350;28;20037;-32
2022/01/10 08:26:07;;;;;;;11.20;3.35;;;;;;;25.74;30.83;96617.97;4978552;28;20612;-31
2022/01/10 08:28:33;;;;;;;6.60;3.13;;;;;;;25.75;30.64;96632.81;4982589;28;20689;-29
2022/01/10 08:30:58;;;;;;;9.40;3.28;;;;;;;25.76;30.64;96633.66;4982531;28;20033;-31
2022/01/10 08:33:23;;;;;;;8.07;3.15;;;;;;;25.75;30.59;96635.44;4976303;28;20690;-30
2022/01/10 08:35:51;;;;;;;8.75;3.55;;;;;;;25.76;30.60;96639.75;4975853;28;20813;-31
2022/01/10 08:38:17;;;;;;;7.43;2.97;;;;;;;25.75;30.56;96638.06;4975422;28;20034;-31
2022/01/10 08:40:42;;;;;;;11.18;3.65;;;;;;;25.75;30.58;96643.31;4981047;28;20041;-33
2022/01/10 08:43:10;;;;;;;10.45;3.20;;;;;;;25.76;30.75;96650.25;4978543;28;20077;-33
2022/01/10 08:45:36;;;;;;;9.38;3.25;;;;;;;25.75;30.80;96645.94;4971857;28;20029;-29
2022/01/10 08:48:02;;;;;;;5.03;2.58;;;;;;;25.76;30.79;96658.13;4977511;28;21673;-30
2022/01/10 08:50:27;;;;;;;6.00;2.72;;;;;;;25.76;30.91;96668.63;4977308;28;20034;-34
2022/01/10 08:52:52;;;;;;;6.22;2.70;;;;;;;25.78;30.74;96679.88;4976327;28;20030;-29
2022/01/10 08:55:18;;;;;;;5.40;2.55;;;;;;;25.77;30.85;96670.31;4978266;28;20034;-32
2022/01/10 08:57:43;;;;;;;7.72;2.60;;;;;;;25.79;30.83;96684.22;4976960;28;20026;-33
2022/01/10 09:00:09;;;;;;;7.63;2.50;;;;;;;25.79;30.86;96673.72;4965914;28;20042;-32
2022/01/10 09:02:35;;;;;;;4.55;2.78;;;;;;;25.80;30.91;96692.94;4966615;28;20033;-30
2022/01/10 09:05:00;;;;;;;4.65;2.40;;;;;;;25.81;31.00;96689.38;4965428;28;20030;-33
2022/01/10 09:07:26;;;;;;;6.38;2.67;;;;;;;25.81;30.96;96695.47;4970300;28;20027;-29
2022/01/10 09:09:51;;;;;;;8.65;2.90;;;;;;;25.83;30.99;96696.22;4969103;28;20100;-32
2022/01/10 09:12:17;;;;;;;6.78;2.42;;;;;;;25.84;31.03;96704.94;4960761;28;20773;-30
2022/01/10 09:14:42;;;;;;;7.07;3.03;;;;;;;25.85;30.84;96700.56;4960166;28;20061;-31
2022/01/10 09:17:08;;;;;;;26.05;10.00;;;;;;;25.76;26.96;96709.78;4960018;28;20030;-33
2022/01/10 09:19:33;;;;;;;29.63;7.40;;;;;;;25.57;25.06;96714.25;4960450;28;20030;-30
2022/01/10 09:21:58;;;;;;;18.00;5.35;;;;;;;25.36;25.09;96725.84;4964081;28;20742;-31
2022/01/10 09:24:24;;;;;;;14.75;4.70;;;;;;;25.19;25.56;96719.69;4951437;28;20030;-31
2022/01/10 09:26:49;;;;;;;11.30;4.18;;;;;;;25.08;26.24;96716.78;4941809;28;20042;-31
2022/01/10 09:29:15;;;;;;;12.93;4.15;;;;;;;25.01;26.73;96732.81;4945374;28;20026;-31
2022/01/10 09:31:41;;;;;;;9.82;3.45;;;;;;;24.97;27.08;96736.53;4946667;28;20701;-31
2022/01/10 09:34:07;;;;;;;10.98;3.78;;;;;;;24.97;27.38;96727.84;4947617;28;20126;-31
2022/01/10 09:36:34;;;;;;;13.27;3.90;;;;;;;24.97;27.78;96736.53;4947606;28;20121;-35
2022/01/10 09:38:59;;;;;;;8.27;3.22;;;;;;;25.00;27.86;96740.75;4945873;28;20113;-33
2022/01/10 09:41:25;;;;;;;12.10;3.63;;;;;;;25.02;27.98;96741.56;4949168;28;20034;-30
2022/01/10 09:43:56;;;;;;;12.65;3.70;;;;;;;25.04;28.06;96740.53;4961484;28;20137;-31
2022/01/10 09:46:22;;;;;;;11.80;3.60;;;;;;;25.07;28.39;96747.41;4961958;28;20031;-31
2022/01/10 09:48:47;;;;;;;22.77;3.72;;;;;;;25.12;28.46;96749.78;4967905;28;20049;-34
2022/01/10 09:51:13;;;;;;;13.43;3.80;;;;;;;25.13;28.54;96752.31;4970337;28;20989;-32
2022/01/10 09:53:38;;;;;;;8.77;3.67;;;;;;;25.16;28.66;96764.44;4970381;28;20031;-29
2022/01/10 09:56:04;;;;;;;11.75;3.20;;;;;;;25.19;28.48;96766.91;4970122;28;20048;-33
2022/01/10 09:58:29;;;;;;;8.02;3.20;;;;;;;25.22;28.79;96761.50;4966721;28;20138;-33
2022/01/10 10:00:58;;;;;;;8.27;3.20;;;;;;;25.24;28.73;96770.13;4967562;28;21413;-30
2022/01/10 10:03:24;;;;;;;12.57;3.80;;;;;;;25.27;29.02;96775.22;4970586;28;20031;-29
2022/01/10 10:05:56;;;;;;;19.38;3.80;;;;;;;25.30;29.00;96776.84;4969065;28;20038;-30
2022/01/10 10:08:22;;;;;;;38.28;7.47;;;;;;;25.33;28.91;96776.69;4949464;28;20030;-33
2022/01/10 10:10:48;;;;;;;26.83;5.93;;;;;;;25.36;28.98;96783.56;4975714;28;20031;-34
2022/01/10 10:13:15;;;;;;;22.42;5.55;;;;;;;25.39;29.15;96788.63;4966385;28;20026;-30
2022/01/10 10:15:41;;;;;;;22.42;5.50;;;;;;;25.40;29.14;96785.94;4970210;28;20509;-30
2022/01/10 10:18:08;;;;;;;24.27;5.97;;;;;;;25.42;29.10;96798.97;4969393;28;20036;-29
2022/01/10 10:20:34;;;;;;;19.13;5.68;;;;;;;25.44;29.19;96803.22;4970432;28;20033;-31
2022/01/10 10:22:59;;;;;;;19.77;6.18;;;;;;;25.46;29.25;96800.50;4965697;28;20429;-33
2022/01/10 10:25:25;;;;;;;21.17;5.78;;;;;;;25.48;29.15;96798.66;4968636;28;20148;-30
2022/01/10 10:27:50;;;;;;;20.77;5.82;;;;;;;25.50;29.23;96802.03;4964363;28;20761;-31
2022/01/10 10:30:21;;;;;;;18.58;5.43;;;;;;;25.51;29.17;96803.72;4970133;28;20093;-34
2022/01/10 10:32:47;;;;;;;19.40;5.53;;;;;;;25.53;29.37;96803.66;4950620;28;20034;-30
2022/01/10 10:35:13;;;;;;;31.73;6.07;;;;;;;25.53;29.28;96809.78;4966559;28;20491;-29
2022/01/10 10:37:40;;;;;;;16.02;5.30;;;;;;;25.55;29.43;96804.44;4970963;28;20064;-30
2022/01/10 10:40:09;;;;;;;20.48;5.30;;;;;;;25.57;29.29;96810.47;4969471;28;20038;-30
2022/01/10 10:42:34;;;;;;;15.82;5.25;;;;;;;25.57;29.32;96813.97;4968361;28;20060;-31
2022/01/10 10:45:04;;;;;;;21.65;5.65;;;;;;;25.59;29.53;96818.28;4952124;28;20694;-33
2022/01/10 10:47:29;;;;;;;13.38;4.93;;;;;;;25.60;29.54;96817.34;4970200;28;20066;-30
2022/01/10 10:49:58;;;;;;;16.02;4.95;;;;;;;25.60;29.28;96817.34;4966900;28;20030;-32
2022/01/10 10:52:29;;;;;;;17.70;4.38;;;;;;;25.61;29.54;96825.13;4971357;28;20037;-31
2022/01/10 10:54:55;;;;;;;12.98;4.38;;;;;;;25.62;29.62;96823.38;4965267;28;20038;-33
2022/01/10 10:57:21;;;;;;;16.25;4.78;;;;;;;25.63;29.54;96822.44;4965192;28;20661;-31
2022/01/10 10:59:47;;;;;;;15.32;4.32;;;;;;;25.63;29.48;96836.38;4963160;28;20026;-30
2022/01/10 11:02:12;;;;;;;12.77;4.50;;;;;;;25.65;29.63;96837.19;4967239;28;20041;-30
2022/01/10 11:04:40;;;;;;;11.80;4.38;;;;;;;25.67;29.59;96839.72;4969163;28;20030;-30
2022/01/10 11:07:05;;;;;;;21.13;4.38;;;;;;;25.67;29.62;96843.19;4967262;28;20030;-30
2022/01/10 11:09:31;;;;;;;12.50;4.30;;;;;;;25.69;29.57;96853.59;4953668;28;20412;-42
2022/01/10 11:11:56;;;;;;;14.13;4.20;;;;;;;25.70;29.67;96852.66;4966590;28;20508;-31
2022/01/10 11:14:24;;;;;;;12.23;3.60;;;;;;;25.72;29.55;96852.59;4969173;28;20672;-31
2022/01/10 11:16:52;;;;;;;9.48;3.80;;;;;;;25.73;29.75;96857.78;4954291;28;20062;-32
2022/01/10 11:19:21;;;;;;;14.48;4.38;;;;;;;25.74;29.82;96858.63;4963341;28;20026;-29
2022/01/10 11:21:55;;;;;;;14.27;3.70;;;;;;;25.74;29.70;96862.09;4968972;28;20465;-34
2022/01/10 11:24:47;;;;;;;9.55;3.50;;;;;;;25.76;29.57;96862.00;4948413;28;20671;-30
2022/01/10 11:27:32;;;;;;;9.95;3.55;;;;;;;25.76;29.55;96862.88;4967194;28;20396;-31
2022/01/10 11:29:58;;;;;;;9.43;3.53;;;;;;;25.77;29.75;96869.81;4961240;28;20069;-31
2022/01/10 11:32:48;;;;;;;10.20;3.75;;;;;;;25.77;29.66;96864.56;4962884;28;20058;-34
2022/01/10 11:35:14;;;;;;;10.57;3.75;;;;;;;25.77;29.73;96869.81;4963362;28;20057;-30
2022/01/10 11:37:39;;;;;;;10.80;3.67;;;;;;;25.77;29.72;96875.06;4942408;28;20039;-33